createdAt,value
2024-01-26T00:01:54.738Z,2.44
2024-01-26T00:04:21.845Z,2.42
2024-01-26T00:06:51.458Z,2.37
2024-01-26T00:09:18.958Z,2.31
2024-01-26T00:11:45.574Z,2.26
2024-01-26T00:14:12.630Z,2.22
2024-01-26T00:16:39.986Z,2.15
2024-01-26T00:19:07.598Z,2.12
2024-01-26T00:21:34.475Z,2.10
2024-01-26T00:24:32.352Z,2.09
2024-01-26T00:26:59.792Z,2.04
2024-01-26T00:29:26.735Z,2.02
2024-01-26T00:31:53.364Z,2.00
2024-01-26T00:34:20.154Z,1.98
2024-01-26T00:36:46.914Z,1.98
2024-01-26T00:39:13.417Z,1.97
2024-01-26T00:41:39.951Z,1.94
2024-01-26T00:44:07.342Z,1.90
2024-01-26T00:46:34.037Z,1.87
2024-01-26T00:49:00.597Z,1.86
2024-01-26T00:51:28.143Z,1.85
2024-01-26T00:53:54.677Z,1.85
2024-01-26T00:56:21.776Z,1.81
2024-01-26T00:58:48.504Z,1.77
2024-01-26T01:01:15.208Z,1.74
2024-01-26T01:03:41.819Z,1.69
2024-01-26T01:06:08.990Z,1.66
2024-01-26T01:08:35.677Z,1.63
2024-01-26T01:11:02.326Z,1.57
2024-01-26T01:13:29.437Z,1.55
2024-01-26T01:15:56.822Z,1.53
2024-01-26T01:18:23.908Z,1.53
2024-01-26T01:20:50.720Z,1.52
2024-01-26T01:23:17.338Z,1.51
2024-01-26T01:25:43.981Z,1.50
2024-01-26T01:28:10.719Z,1.51
2024-01-26T01:30:37.486Z,1.52
2024-01-26T01:33:04.572Z,1.52
2024-01-26T01:35:31.230Z,1.51
2024-01-26T01:37:57.907Z,1.49
2024-01-26T01:40:24.445Z,1.46
2024-01-26T01:42:51.209Z,1.46
2024-01-26T01:45:17.912Z,1.45
2024-01-26T01:47:44.715Z,1.45
2024-01-26T01:50:12.113Z,1.44
2024-01-26T01:52:42.754Z,1.42
2024-01-26T01:55:11.235Z,1.40
2024-01-26T01:57:42.692Z,1.38
2024-01-26T02:08:45.411Z,1.29
2024-01-26T02:16:39.953Z,1.24
2024-01-26T02:21:09.718Z,1.24
2024-01-26T02:24:58.013Z,1.27
2024-01-26T02:27:37.566Z,1.23
2024-01-26T02:30:53.943Z,1.22
2024-01-26T02:34:51.479Z,1.23
2024-01-26T02:42:06.235Z,1.23
2024-01-26T02:45:58.602Z,1.20
2024-01-26T02:49:18.949Z,1.22
2024-01-26T02:53:00.042Z,1.25
2024-01-26T03:00:16.392Z,1.32
2024-01-26T03:08:34.163Z,1.35
2024-01-26T03:11:22.627Z,1.37
2024-01-26T03:15:00.615Z,1.38
2024-01-26T03:18:50.914Z,1.36
2024-01-26T03:22:08.687Z,1.35
2024-01-26T03:25:23.802Z,1.36
2024-01-26T03:31:42.234Z,1.34
2024-01-26T03:34:21.305Z,1.30
2024-01-26T03:37:20.881Z,1.25
2024-01-26T03:39:57.289Z,1.23
2024-01-26T03:42:57.593Z,1.24
2024-01-26T03:45:46.277Z,1.20
2024-01-26T03:48:20.791Z,1.15
2024-01-26T03:51:11.384Z,1.16
2024-01-26T03:54:10.218Z,1.16
2024-01-26T03:57:17.018Z,1.14
2024-01-26T04:03:53.601Z,1.14
2024-01-26T04:06:42.645Z,1.12
2024-01-26T04:09:13.044Z,1.16
2024-01-26T04:12:30.333Z,1.18
2024-01-26T04:15:19.145Z,1.13
2024-01-26T04:18:04.178Z,1.13
2024-01-26T04:20:54.448Z,1.12
2024-01-26T04:23:48.941Z,1.12
2024-01-26T04:26:45.535Z,1.13
2024-01-26T04:29:20.513Z,1.13
2024-01-26T04:32:20.635Z,1.16
2024-01-26T04:35:32.597Z,1.18
2024-01-26T04:38:21.057Z,1.18
2024-01-26T04:41:29.280Z,1.19
2024-01-26T04:44:02.769Z,1.19
2024-01-26T04:47:08.033Z,1.21
2024-01-26T04:50:17.767Z,1.21
2024-01-26T04:53:33.350Z,1.22
2024-01-26T04:56:11.221Z,1.25
2024-01-26T04:59:11.560Z,1.29
2024-01-26T05:02:24.338Z,1.33
2024-01-26T05:05:55.280Z,1.31
2024-01-26T05:08:27.302Z,1.35
2024-01-26T05:11:31.857Z,1.36
2024-01-26T05:14:53.609Z,1.36
2024-01-26T05:18:09.893Z,1.37
2024-01-26T05:21:48.149Z,1.39
2024-01-26T05:24:45.656Z,1.41
2024-01-26T05:27:18.973Z,1.40
2024-01-26T05:30:41.971Z,1.39
2024-01-26T05:34:04.021Z,1.41
2024-01-26T05:37:22.387Z,1.40
2024-01-26T05:40:13.720Z,1.40
2024-01-26T05:43:07.176Z,1.42
2024-01-26T05:45:58.483Z,1.43
2024-01-26T05:48:53.331Z,1.42
2024-01-26T05:54:53.776Z,1.38
2024-01-26T05:58:12.928Z,1.39
2024-01-26T06:00:59.818Z,1.40
2024-01-26T06:03:51.395Z,1.42
2024-01-26T06:07:05.996Z,1.44
2024-01-26T06:10:16.043Z,1.45
2024-01-26T06:14:53.055Z,1.47
2024-01-26T06:17:56.794Z,1.46
2024-01-26T06:21:45.424Z,1.46
2024-01-26T06:25:15.643Z,1.46
2024-01-26T06:30:51.401Z,1.44
2024-01-26T06:44:10.193Z,1.53
2024-01-26T06:46:36.735Z,1.57
2024-01-26T06:49:03.510Z,1.60
2024-01-26T06:51:30.296Z,1.62
2024-01-26T06:53:57.744Z,1.63
2024-01-26T06:56:24.355Z,1.65
2024-01-26T06:58:50.862Z,1.66
2024-01-26T07:01:17.508Z,1.66
2024-01-26T07:03:47.625Z,1.64
2024-01-26T07:06:14.702Z,1.65
2024-01-26T07:08:43.783Z,1.68
2024-01-26T07:11:15.065Z,1.71
2024-01-26T07:13:41.716Z,1.70
2024-01-26T07:16:09.607Z,1.67
2024-01-26T07:18:36.507Z,1.69
2024-01-26T07:21:08.492Z,1.68
2024-01-26T07:23:35.406Z,1.68
2024-01-26T07:26:02.665Z,1.67
2024-01-26T07:28:29.545Z,1.66
2024-01-26T07:30:56.258Z,1.66
2024-01-26T07:33:23.331Z,1.64
2024-01-26T07:35:50.513Z,1.65
2024-01-26T07:38:17.286Z,1.66
2024-01-26T07:40:43.913Z,1.69
2024-01-26T07:43:17.391Z,1.69
2024-01-26T07:45:44.016Z,1.71
2024-01-26T07:48:14.139Z,1.70
2024-01-26T07:50:44.409Z,1.71
2024-01-26T07:53:13.672Z,1.72
2024-01-26T07:55:41.390Z,1.72
2024-01-26T07:58:08.078Z,1.74
2024-01-26T08:00:35.033Z,1.78
2024-01-26T08:03:01.930Z,1.77
2024-01-26T08:05:28.731Z,1.77
2024-01-26T08:07:55.979Z,1.81
2024-01-26T08:10:23.069Z,1.84
2024-01-26T08:12:50.267Z,1.86
2024-01-26T08:15:17.367Z,1.88
2024-01-26T08:17:44.497Z,1.91
2024-01-26T08:20:12.787Z,1.94
2024-01-26T08:22:40.142Z,1.95
2024-01-26T08:25:08.661Z,1.96
2024-01-26T08:27:36.653Z,1.98
2024-01-26T08:30:04.763Z,2.01
2024-01-26T08:32:31.359Z,2.02
2024-01-26T08:34:58.395Z,2.02
2024-01-26T08:37:25.090Z,2.02
2024-01-26T08:39:51.640Z,2.03
2024-01-26T08:42:18.364Z,2.08
2024-01-26T08:44:45.027Z,2.11
2024-01-26T08:47:11.484Z,2.12
2024-01-26T08:49:38.119Z,2.14
2024-01-26T08:52:06.529Z,2.18
2024-01-26T08:54:33.853Z,2.19
2024-01-26T08:57:00.593Z,2.21
2024-01-26T08:59:27.641Z,2.24
2024-01-26T09:01:54.254Z,2.26
2024-01-26T09:04:21.144Z,2.29
2024-01-26T09:06:51.692Z,2.33
2024-01-26T09:09:21.703Z,2.35
2024-01-26T09:11:48.213Z,2.36
2024-01-26T09:14:14.920Z,2.39
2024-01-26T09:16:41.249Z,2.40
2024-01-26T09:19:09.526Z,2.43
2024-01-26T09:21:36.312Z,2.45
2024-01-26T09:24:03.106Z,2.46
2024-01-26T09:26:29.599Z,2.47
2024-01-26T09:28:56.307Z,2.49
2024-01-26T09:31:22.941Z,2.50
2024-01-26T09:33:49.566Z,2.55
2024-01-26T09:36:16.293Z,2.61
2024-01-26T09:38:43.147Z,2.67
2024-01-26T09:41:09.823Z,2.67
2024-01-26T09:43:36.540Z,2.69
2024-01-26T09:46:06.148Z,2.70
2024-01-26T09:48:34.161Z,2.71
2024-01-26T09:51:02.708Z,2.73
2024-01-26T09:53:32.722Z,2.76
2024-01-26T09:56:03.925Z,2.83
2024-01-26T09:58:30.849Z,2.88
2024-01-26T10:00:57.959Z,2.91
2024-01-26T10:03:25.314Z,2.94
2024-01-26T10:05:52.548Z,2.89
2024-01-26T10:08:19.345Z,2.86
2024-01-26T10:10:46.421Z,2.87
2024-01-26T10:13:14.033Z,2.87
2024-01-26T10:15:40.714Z,2.87
2024-01-26T10:18:07.861Z,2.88
2024-01-26T10:20:35.459Z,2.85
2024-01-26T10:23:02.389Z,2.88
2024-01-26T10:25:29.642Z,2.87
2024-01-26T10:27:56.393Z,2.86
2024-01-26T10:30:23.495Z,2.84
2024-01-26T10:32:52.295Z,2.84
2024-01-26T10:35:23.166Z,2.87
2024-01-26T10:37:50.625Z,2.90
2024-01-26T10:40:18.792Z,2.93
2024-01-26T10:42:48.048Z,2.95
2024-01-26T10:45:16.536Z,2.96
2024-01-26T10:47:43.683Z,2.96
2024-01-26T10:50:11.677Z,2.95
2024-01-26T10:52:55.934Z,2.96
2024-01-26T10:55:22.898Z,2.94
2024-01-26T10:57:50.294Z,2.89
2024-01-26T11:00:19.492Z,2.85
2024-01-26T11:02:46.463Z,2.85
2024-01-26T11:05:13.963Z,2.88
2024-01-26T11:07:41.617Z,2.91
2024-01-26T11:10:30.021Z,2.94
2024-01-26T11:13:02.121Z,2.96
2024-01-26T11:15:30.197Z,2.96
2024-01-26T11:17:58.774Z,2.99
2024-01-26T11:20:35.701Z,3.04
2024-01-26T11:23:15.076Z,3.07
2024-01-26T11:25:44.304Z,3.07
2024-01-26T11:28:12.625Z,3.10
2024-01-26T11:30:40.516Z,3.12
2024-01-26T11:33:18.384Z,3.14
2024-01-26T11:35:55.231Z,3.18
2024-01-26T11:38:24.700Z,3.22
2024-01-26T11:40:58.868Z,3.28
2024-01-26T11:43:30.706Z,3.33
2024-01-26T11:45:58.314Z,3.36
2024-01-26T11:48:26.910Z,3.39
2024-01-26T11:50:54.115Z,3.44
2024-01-26T11:53:24.330Z,3.48
2024-01-26T11:55:53.103Z,3.49
2024-01-26T11:58:20.509Z,3.52
2024-01-26T12:00:47.499Z,3.58
2024-01-26T12:03:17.872Z,3.61
2024-01-26T12:05:44.678Z,3.64
2024-01-26T12:08:35.760Z,3.66
2024-01-26T12:11:04.652Z,3.68
2024-01-26T12:13:31.698Z,3.65
2024-01-26T12:16:19.696Z,3.61
2024-01-26T12:18:47.875Z,3.58
2024-01-26T12:21:48.169Z,3.54
2024-01-26T12:24:26.675Z,3.52
2024-01-26T12:26:53.898Z,3.50
2024-01-26T12:29:22.027Z,3.50
2024-01-26T12:31:53.681Z,3.51
2024-01-26T12:34:43.568Z,3.49
2024-01-26T12:37:33.049Z,3.45
2024-01-26T12:40:14.123Z,3.45
2024-01-26T12:43:10.204Z,3.46
2024-01-26T12:45:47.988Z,3.47
2024-01-26T12:49:03.418Z,3.44
2024-01-26T12:55:12.309Z,3.45
2024-01-26T13:01:09.242Z,3.51
2024-01-26T13:04:00.357Z,3.51
2024-01-26T13:13:20.023Z,3.62
2024-01-26T13:16:40.100Z,3.59
2024-01-26T13:20:27.556Z,3.62
2024-01-26T13:24:15.706Z,3.66
2024-01-26T13:28:04.079Z,3.61
2024-01-26T13:32:23.898Z,3.55
2024-01-26T13:35:38.546Z,3.55
2024-01-26T13:39:25.724Z,3.52
2024-01-26T13:43:12.912Z,3.50
2024-01-26T13:46:59.911Z,3.44
2024-01-26T13:50:57.584Z,3.40
2024-01-26T13:54:40.277Z,3.33
2024-01-26T13:58:29.322Z,3.35
2024-01-26T14:02:01.193Z,3.40
2024-01-26T14:05:48.312Z,3.44
2024-01-26T14:09:38.100Z,3.42
2024-01-26T14:13:25.310Z,3.39
2024-01-26T14:17:12.628Z,3.42
2024-01-26T14:20:59.718Z,3.43
2024-01-26T14:24:48.386Z,3.41
2024-01-26T14:28:38.004Z,3.27
2024-01-26T14:35:52.882Z,3.16
2024-01-26T14:39:20.543Z,3.11
2024-01-26T14:42:48.966Z,3.09
2024-01-26T14:46:36.259Z,3.10
2024-01-26T14:50:25.033Z,3.08
2024-01-26T14:54:11.863Z,2.97
2024-01-26T15:01:43.525Z,2.89
2024-01-26T15:05:18.705Z,2.88
2024-01-26T15:09:05.523Z,2.88
2024-01-26T15:12:51.680Z,2.77
2024-01-26T15:16:37.686Z,2.52
2024-01-26T15:20:04.938Z,2.34
2024-01-26T15:23:51.777Z,2.20
2024-01-26T15:27:45.202Z,2.16
2024-01-26T15:31:32.040Z,2.03
2024-01-26T15:35:19.566Z,1.95
2024-01-26T15:39:05.087Z,1.85
2024-01-26T15:42:51.741Z,1.78
2024-01-26T15:46:38.469Z,1.71
2024-01-26T15:50:31.741Z,1.67
2024-01-26T15:54:18.901Z,1.67
2024-01-26T15:58:09.048Z,1.66
2024-01-26T16:02:08.286Z,1.66
2024-01-26T16:05:55.293Z,1.65
2024-01-26T16:09:51.221Z,1.60
2024-01-26T16:13:31.971Z,1.53
2024-01-26T16:17:18.248Z,1.49
2024-01-26T16:20:45.405Z,1.47
2024-01-26T16:24:14.795Z,1.41
2024-01-26T16:27:51.320Z,1.37
2024-01-26T16:31:39.371Z,1.32
2024-01-26T16:35:25.858Z,1.27
2024-01-26T16:39:15.979Z,1.29
2024-01-26T16:42:22.550Z,1.31
2024-01-26T16:45:49.230Z,1.32
2024-01-26T16:50:21.115Z,1.24
2024-01-26T16:53:27.052Z,1.23
2024-01-26T16:57:00.490Z,1.20
2024-01-26T17:00:47.366Z,1.15
2024-01-26T17:04:34.363Z,1.20
2024-01-26T17:07:52.878Z,1.23
2024-01-26T17:11:39.285Z,1.26
2024-01-26T17:15:06.444Z,1.31
2024-01-26T17:18:53.377Z,1.32
2024-01-26T17:22:39.775Z,1.31
2024-01-26T17:28:40.391Z,1.31
2024-01-26T17:31:27.742Z,1.35
2024-01-26T17:34:43.783Z,1.40
2024-01-26T17:37:45.611Z,1.43
2024-01-26T17:47:15.216Z,1.52
2024-01-26T17:50:44.703Z,1.52
2024-01-26T17:53:32.051Z,1.46
2024-01-26T17:56:58.654Z,1.47
2024-01-26T18:00:48.479Z,1.46
2024-01-26T18:08:06.263Z,1.42
2024-01-26T18:11:22.293Z,1.43
2024-01-26T18:14:52.838Z,1.48
2024-01-26T18:17:43.233Z,1.51
2024-01-26T18:20:12.134Z,1.55
2024-01-26T18:22:51.352Z,1.55
2024-01-26T18:25:21.030Z,1.59
2024-01-26T18:28:07.256Z,1.61
2024-01-26T18:30:36.869Z,1.63
2024-01-26T18:33:15.299Z,1.65
2024-01-26T18:36:07.517Z,1.67
2024-01-26T18:38:36.302Z,1.69
2024-01-26T18:41:03.783Z,1.71
2024-01-26T18:43:32.664Z,1.74
2024-01-26T18:46:04.102Z,1.75
2024-01-26T18:48:55.359Z,1.77
2024-01-26T18:51:23.751Z,1.73
2024-01-26T18:53:56.892Z,1.69
2024-01-26T18:56:48.666Z,1.69
2024-01-26T18:59:37.501Z,1.68
2024-01-26T19:02:47.840Z,1.64
2024-01-26T19:05:54.785Z,1.58
2024-01-26T19:09:02.734Z,1.54
2024-01-26T19:11:32.696Z,1.55
2024-01-26T19:14:23.807Z,1.57
2024-01-26T19:16:57.466Z,1.57
2024-01-26T19:19:46.201Z,1.56
2024-01-26T19:22:35.550Z,1.55
2024-01-26T19:25:09.636Z,1.53
2024-01-26T19:27:40.085Z,1.55
2024-01-26T19:30:11.669Z,1.60
2024-01-26T19:32:45.389Z,1.65
2024-01-26T19:35:35.182Z,1.72
2024-01-26T19:38:44.824Z,1.76
2024-01-26T19:41:27.569Z,1.76
2024-01-26T19:43:54.579Z,1.77
2024-01-26T19:46:21.717Z,1.80
2024-01-26T19:48:48.924Z,1.82
2024-01-26T19:51:19.918Z,1.87
2024-01-26T19:53:47.993Z,1.92
2024-01-26T19:56:17.475Z,1.99
2024-01-26T19:58:44.362Z,2.04
2024-01-26T20:01:13.330Z,2.11
2024-01-26T20:03:44.706Z,2.16
2024-01-26T20:06:15.214Z,2.25
2024-01-26T20:08:45.520Z,2.33
2024-01-26T20:11:13.180Z,2.40
2024-01-26T20:13:39.974Z,2.48
2024-01-26T20:16:08.378Z,2.54
2024-01-26T20:18:36.983Z,2.59
2024-01-26T20:21:13.734Z,2.63
2024-01-26T20:23:42.001Z,2.69
2024-01-26T20:26:10.233Z,2.72
2024-01-26T20:28:38.660Z,2.78
2024-01-26T20:31:10.099Z,2.82
2024-01-26T20:33:44.565Z,2.83
2024-01-26T20:36:12.542Z,2.92
2024-01-26T20:38:39.738Z,2.97
2024-01-26T20:41:06.904Z,3.00
2024-01-26T20:43:33.590Z,3.04
2024-01-26T20:46:00.272Z,3.09
2024-01-26T20:49:27.121Z,3.11
2024-01-26T20:52:53.815Z,3.18
2024-01-26T20:56:00.912Z,3.26
2024-01-26T20:59:29.173Z,3.30
2024-01-26T21:03:39.615Z,3.35
2024-01-26T21:07:09.893Z,3.37
2024-01-26T21:11:03.043Z,3.43
2024-01-26T21:14:53.506Z,3.46
2024-01-26T21:18:48.000Z,3.50
2024-01-26T21:22:36.218Z,3.55
2024-01-26T21:26:36.632Z,3.59
2024-01-26T21:29:21.984Z,3.61
2024-01-26T21:31:52.504Z,3.61
2024-01-26T21:34:19.274Z,3.63
2024-01-26T21:36:46.391Z,3.68
2024-01-26T21:39:13.310Z,3.70
2024-01-26T21:41:40.362Z,3.72
2024-01-26T21:48:05.928Z,3.82
2024-01-26T21:51:39.512Z,3.85
2024-01-26T21:55:16.736Z,3.88
2024-01-26T21:59:05.578Z,3.92
2024-01-26T22:02:53.425Z,3.97
2024-01-26T22:06:38.250Z,4.00
2024-01-26T22:09:09.946Z,4.03
2024-01-26T22:11:37.201Z,4.06
2024-01-26T22:14:04.619Z,4.08
2024-01-26T22:16:33.182Z,4.10
2024-01-26T22:19:00.760Z,4.13
2024-01-26T22:21:28.396Z,4.15
2024-01-26T22:23:55.377Z,4.18
2024-01-26T22:26:23.260Z,4.18
2024-01-26T22:28:56.063Z,4.19
2024-01-26T22:31:23.036Z,4.20
2024-01-26T22:33:50.046Z,4.21
2024-01-26T22:36:19.112Z,4.22
2024-01-26T22:38:47.542Z,4.22
2024-01-26T22:41:14.393Z,4.23
2024-01-26T22:43:43.093Z,4.23
2024-01-26T22:46:09.712Z,4.22
2024-01-26T22:48:36.694Z,4.23
2024-01-26T22:51:03.410Z,4.23
2024-01-26T22:53:30.203Z,4.23
2024-01-26T22:55:56.722Z,4.23
2024-01-26T22:58:23.487Z,4.24
2024-01-26T23:00:50.189Z,4.23
2024-01-26T23:03:16.954Z,4.22
2024-01-26T23:05:44.811Z,4.22
2024-01-26T23:08:12.982Z,4.21
2024-01-26T23:10:39.404Z,4.18
2024-01-26T23:13:06.099Z,4.16
2024-01-26T23:15:33.006Z,4.15
2024-01-26T23:18:00.050Z,4.15
2024-01-26T23:20:29.458Z,4.14
2024-01-26T23:22:56.290Z,4.10
2024-01-26T23:25:23.370Z,4.06
2024-01-26T23:27:54.728Z,4.00
2024-01-26T23:30:23.754Z,3.95
2024-01-26T23:32:53.342Z,3.88
2024-01-26T23:35:21.604Z,3.82
2024-01-26T23:37:49.030Z,3.74
2024-01-26T23:40:16.601Z,3.67
2024-01-26T23:42:43.370Z,3.62
2024-01-26T23:45:10.272Z,3.56
2024-01-26T23:47:36.937Z,3.51
2024-01-26T23:50:04.612Z,3.45
2024-01-26T23:52:34.425Z,3.40
2024-01-26T23:55:02.262Z,3.37
2024-01-26T23:57:43.948Z,3.33
